sensor_id;sensor_type;location;lat;lon;timestamp;P1;durP1;ratioP1;P2;durP2;ratioP2
48751;SDS011;34544;48.836;9.174;2023-03-01T00:01:06;24.33;;;15.03;;
48751;SDS011;34544;48.836;9.174;2023-03-01T00:03:34;27.80;;;16.30;;
48751;SDS011;34544;48.836;9.174;2023-03-01T00:06:00;28.67;;;15.27;;
48751;SDS011;34544;48.836;9.174;2023-03-01T00:08:27;27.87;;;14.67;;
48751;SDS011;34544;48.836;9.174;2023-03-01T00:11:00;26.70;;;16.07;;
48751;SDS011;34544;48.836;9.174;2023-03-01T00:13:31;26.67;;;14.70;;
48751;SDS011;34544;48.836;9.174;2023-03-01T00:15:57;24.43;;;14.80;;
48751;SDS011;34544;48.836;9.174;2023-03-01T00:18:23;22.20;;;14.37;;
48751;SDS011;34544;48.836;9.174;2023-03-01T00:20:53;25.70;;;15.07;;
48751;SDS011;34544;48.836;9.174;2023-03-01T00:23:20;24.13;;;14.30;;
48751;SDS011;34544;48.836;9.174;2023-03-01T00:25:47;26.07;;;15.33;;
48751;SDS011;34544;48.836;9.174;2023-03-01T00:28:12;21.63;;;14.13;;
48751;SDS011;34544;48.836;9.174;2023-03-01T00:30:39;26.30;;;15.00;;
48751;SDS011;34544;48.836;9.174;2023-03-01T00:33:04;23.70;;;14.80;;
48751;SDS011;34544;48.836;9.174;2023-03-01T00:35:31;27.37;;;14.67;;
48751;SDS011;34544;48.836;9.174;2023-03-01T00:37:58;27.63;;;16.13;;
48751;SDS011;34544;48.836;9.174;2023-03-01T00:40:25;27.52;;;13.98;;
48751;SDS011;34544;48.836;9.174;2023-03-01T00:42:51;25.80;;;15.03;;
48751;SDS011;34544;48.836;9.174;2023-03-01T00:45:17;21.60;;;12.47;;
48751;SDS011;34544;48.836;9.174;2023-03-01T00:47:43;24.02;;;14.30;;
48751;SDS011;34544;48.836;9.174;2023-03-01T00:50:09;22.33;;;13.87;;
48751;SDS011;34544;48.836;9.174;2023-03-01T00:52:35;26.93;;;15.10;;
48751;SDS011;34544;48.836;9.174;2023-03-01T00:55:02;28.83;;;15.97;;
48751;SDS011;34544;48.836;9.174;2023-03-01T00:57:28;24.70;;;14.27;;
48751;SDS011;34544;48.836;9.174;2023-03-01T00:59:54;25.77;;;14.40;;
48751;SDS011;34544;48.836;9.174;2023-03-01T01:02:19;22.97;;;14.30;;
48751;SDS011;34544;48.836;9.174;2023-03-01T01:04:46;22.53;;;14.00;;
48751;SDS011;34544;48.836;9.174;2023-03-01T01:07:12;24.20;;;13.83;;
48751;SDS011;34544;48.836;9.174;2023-03-01T01:09:39;25.80;;;14.23;;
48751;SDS011;34544;48.836;9.174;2023-03-01T01:12:04;28.27;;;15.40;;
48751;SDS011;34544;48.836;9.174;2023-03-01T01:14:31;26.67;;;14.70;;
48751;SDS011;34544;48.836;9.174;2023-03-01T01:16:57;24.40;;;14.67;;
48751;SDS011;34544;48.836;9.174;2023-03-01T01:19:23;25.83;;;16.30;;
48751;SDS011;34544;48.836;9.174;2023-03-01T01:21:49;24.93;;;14.50;;
48751;SDS011;34544;48.836;9.174;2023-03-01T01:24:15;27.03;;;15.90;;
48751;SDS011;34544;48.836;9.174;2023-03-01T01:26:41;22.07;;;14.40;;
48751;SDS011;34544;48.836;9.174;2023-03-01T01:29:07;23.60;;;15.00;;
48751;SDS011;34544;48.836;9.174;2023-03-01T01:31:34;22.50;;;13.97;;
48751;SDS011;34544;48.836;9.174;2023-03-01T01:34:02;28.57;;;15.33;;
48751;SDS011;34544;48.836;9.174;2023-03-01T01:36:30;24.80;;;15.57;;
48751;SDS011;34544;48.836;9.174;2023-03-01T01:38:56;29.17;;;15.13;;
48751;SDS011;34544;48.836;9.174;2023-03-01T01:41:22;23.37;;;13.70;;
48751;SDS011;34544;48.836;9.174;2023-03-01T01:44:10;26.60;;;14.53;;
48751;SDS011;34544;48.836;9.174;2023-03-01T01:46:50;24.13;;;15.53;;
48751;SDS011;34544;48.836;9.174;2023-03-01T01:49:23;25.73;;;15.63;;
48751;SDS011;34544;48.836;9.174;2023-03-01T01:54:40;23.20;;;14.40;;
48751;SDS011;34544;48.836;9.174;2023-03-01T01:57:12;25.67;;;14.55;;
48751;SDS011;34544;48.836;9.174;2023-03-01T01:59:45;24.87;;;13.93;;
48751;SDS011;34544;48.836;9.174;2023-03-01T02:02:15;24.03;;;13.83;;
48751;SDS011;34544;48.836;9.174;2023-03-01T02:04:41;26.53;;;16.33;;
48751;SDS011;34544;48.836;9.174;2023-03-01T02:07:15;26.43;;;13.80;;
48751;SDS011;34544;48.836;9.174;2023-03-01T02:09:47;26.60;;;14.77;;
48751;SDS011;34544;48.836;9.174;2023-03-01T02:12:15;28.53;;;14.90;;
48751;SDS011;34544;48.836;9.174;2023-03-01T02:14:43;24.48;;;14.45;;
48751;SDS011;34544;48.836;9.174;2023-03-01T02:17:09;27.20;;;14.45;;
48751;SDS011;34544;48.836;9.174;2023-03-01T02:19:43;26.40;;;15.27;;
48751;SDS011;34544;48.836;9.174;2023-03-01T02:22:17;25.55;;;15.43;;
48751;SDS011;34544;48.836;9.174;2023-03-01T02:27:21;26.77;;;15.65;;
48751;SDS011;34544;48.836;9.174;2023-03-01T02:29:50;27.10;;;14.45;;
48751;SDS011;34544;48.836;9.174;2023-03-01T02:32:15;25.03;;;15.00;;
48751;SDS011;34544;48.836;9.174;2023-03-01T02:34:50;30.57;;;16.23;;
48751;SDS011;34544;48.836;9.174;2023-03-01T02:37:20;26.58;;;16.00;;
48751;SDS011;34544;48.836;9.174;2023-03-01T02:39:50;28.88;;;14.98;;
48751;SDS011;34544;48.836;9.174;2023-03-01T02:42:23;22.25;;;14.13;;
48751;SDS011;34544;48.836;9.174;2023-03-01T02:44:53;31.63;;;16.35;;
48751;SDS011;34544;48.836;9.174;2023-03-01T02:47:19;26.80;;;16.52;;
48751;SDS011;34544;48.836;9.174;2023-03-01T02:49:45;27.63;;;15.80;;
48751;SDS011;34544;48.836;9.174;2023-03-01T02:52:33;24.02;;;14.18;;
48751;SDS011;34544;48.836;9.174;2023-03-01T02:55:18;24.73;;;15.98;;
48751;SDS011;34544;48.836;9.174;2023-03-01T02:57:45;26.88;;;15.77;;
48751;SDS011;34544;48.836;9.174;2023-03-01T03:00:17;32.33;;;16.77;;
48751;SDS011;34544;48.836;9.174;2023-03-01T03:02:53;24.75;;;15.50;;
48751;SDS011;34544;48.836;9.174;2023-03-01T03:05:24;24.52;;;15.73;;
48751;SDS011;34544;48.836;9.174;2023-03-01T03:07:56;28.42;;;15.23;;
48751;SDS011;34544;48.836;9.174;2023-03-01T03:10:24;29.00;;;16.05;;
48751;SDS011;34544;48.836;9.174;2023-03-01T03:12:56;26.92;;;17.20;;
48751;SDS011;34544;48.836;9.174;2023-03-01T03:15:29;32.22;;;17.15;;
48751;SDS011;34544;48.836;9.174;2023-03-01T03:17:57;20.90;;;13.70;;
48751;SDS011;34544;48.836;9.174;2023-03-01T03:20:25;26.85;;;15.32;;
48751;SDS011;34544;48.836;9.174;2023-03-01T03:22:53;28.17;;;16.30;;
48751;SDS011;34544;48.836;9.174;2023-03-01T03:25:20;20.40;;;13.68;;
48751;SDS011;34544;48.836;9.174;2023-03-01T03:27:48;30.27;;;16.05;;
48751;SDS011;34544;48.836;9.174;2023-03-01T03:30:21;26.67;;;15.90;;
48751;SDS011;34544;48.836;9.174;2023-03-01T03:32:48;29.88;;;14.82;;
48751;SDS011;34544;48.836;9.174;2023-03-01T03:35:22;29.17;;;15.30;;
48751;SDS011;34544;48.836;9.174;2023-03-01T03:37:55;28.58;;;15.50;;
48751;SDS011;34544;48.836;9.174;2023-03-01T03:40:38;28.80;;;16.90;;
48751;SDS011;34544;48.836;9.174;2023-03-01T03:43:06;25.33;;;15.02;;
48751;SDS011;34544;48.836;9.174;2023-03-01T03:45:34;25.08;;;15.52;;
48751;SDS011;34544;48.836;9.174;2023-03-01T03:48:01;26.83;;;17.27;;
48751;SDS011;34544;48.836;9.174;2023-03-01T03:50:27;24.73;;;15.32;;
48751;SDS011;34544;48.836;9.174;2023-03-01T03:52:53;28.63;;;15.38;;
48751;SDS011;34544;48.836;9.174;2023-03-01T03:55:19;34.13;;;16.80;;
48751;SDS011;34544;48.836;9.174;2023-03-01T03:57:45;26.40;;;15.20;;
48751;SDS011;34544;48.836;9.174;2023-03-01T04:00:19;26.10;;;15.30;;
48751;SDS011;34544;48.836;9.174;2023-03-01T04:02:47;23.38;;;15.77;;
48751;SDS011;34544;48.836;9.174;2023-03-01T04:05:14;27.67;;;16.48;;
48751;SDS011;34544;48.836;9.174;2023-03-01T04:07:42;26.80;;;16.30;;
48751;SDS011;34544;48.836;9.174;2023-03-01T04:10:11;27.30;;;15.40;;
48751;SDS011;34544;48.836;9.174;2023-03-01T04:12:38;27.83;;;16.33;;
48751;SDS011;34544;48.836;9.174;2023-03-01T04:15:05;27.40;;;16.45;;
48751;SDS011;34544;48.836;9.174;2023-03-01T04:17:38;27.20;;;15.73;;
48751;SDS011;34544;48.836;9.174;2023-03-01T04:20:09;27.02;;;15.45;;
48751;SDS011;34544;48.836;9.174;2023-03-01T04:22:42;21.92;;;15.15;;
48751;SDS011;34544;48.836;9.174;2023-03-01T04:25:11;27.60;;;16.75;;
48751;SDS011;34544;48.836;9.174;2023-03-01T04:27:39;25.23;;;15.27;;
48751;SDS011;34544;48.836;9.174;2023-03-01T04:30:05;28.38;;;16.15;;
48751;SDS011;34544;48.836;9.174;2023-03-01T04:32:31;27.92;;;16.33;;
48751;SDS011;34544;48.836;9.174;2023-03-01T04:34:57;23.80;;;15.93;;
48751;SDS011;34544;48.836;9.174;2023-03-01T04:37:23;45.75;;;16.80;;
48751;SDS011;34544;48.836;9.174;2023-03-01T04:39:49;24.33;;;15.27;;
48751;SDS011;34544;48.836;9.174;2023-03-01T04:42:15;27.02;;;16.65;;
48751;SDS011;34544;48.836;9.174;2023-03-01T04:44:41;27.27;;;14.90;;
48751;SDS011;34544;48.836;9.174;2023-03-01T04:47:08;21.63;;;15.00;;
48751;SDS011;34544;48.836;9.174;2023-03-01T04:49:34;27.80;;;17.20;;
48751;SDS011;34544;48.836;9.174;2023-03-01T04:51:59;24.55;;;16.02;;
48751;SDS011;34544;48.836;9.174;2023-03-01T04:54:33;25.45;;;16.05;;
48751;SDS011;34544;48.836;9.174;2023-03-01T04:57:00;27.00;;;16.23;;
48751;SDS011;34544;48.836;9.174;2023-03-01T04:59:26;24.20;;;15.40;;
48751;SDS011;34544;48.836;9.174;2023-03-01T05:01:53;28.02;;;16.60;;
48751;SDS011;34544;48.836;9.174;2023-03-01T05:04:21;29.25;;;16.95;;
48751;SDS011;34544;48.836;9.174;2023-03-01T05:06:47;25.60;;;15.95;;
48751;SDS011;34544;48.836;9.174;2023-03-01T05:09:13;26.88;;;14.88;;
48751;SDS011;34544;48.836;9.174;2023-03-01T05:11:39;28.13;;;17.52;;
48751;SDS011;34544;48.836;9.174;2023-03-01T05:14:05;30.63;;;16.08;;
48751;SDS011;34544;48.836;9.174;2023-03-01T05:16:32;25.80;;;15.43;;
48751;SDS011;34544;48.836;9.174;2023-03-01T05:18:58;28.73;;;17.67;;
48751;SDS011;34544;48.836;9.174;2023-03-01T05:21:24;28.90;;;17.23;;
48751;SDS011;34544;48.836;9.174;2023-03-01T05:23:50;25.20;;;16.52;;
48751;SDS011;34544;48.836;9.174;2023-03-01T05:26:17;30.70;;;17.45;;
48751;SDS011;34544;48.836;9.174;2023-03-01T05:28:44;22.50;;;15.07;;
48751;SDS011;34544;48.836;9.174;2023-03-01T05:31:10;26.38;;;15.07;;
48751;SDS011;34544;48.836;9.174;2023-03-01T05:33:39;25.27;;;16.35;;
48751;SDS011;34544;48.836;9.174;2023-03-01T05:36:07;27.73;;;16.67;;
48751;SDS011;34544;48.836;9.174;2023-03-01T05:38:34;27.52;;;15.90;;
48751;SDS011;34544;48.836;9.174;2023-03-01T05:41:00;28.40;;;17.33;;
48751;SDS011;34544;48.836;9.174;2023-03-01T05:43:29;25.73;;;15.98;;
48751;SDS011;34544;48.836;9.174;2023-03-01T05:48:25;35.22;;;16.50;;
48751;SDS011;34544;48.836;9.174;2023-03-01T05:50:51;25.38;;;15.98;;
48751;SDS011;34544;48.836;9.174;2023-03-01T05:53:17;24.50;;;15.73;;
48751;SDS011;34544;48.836;9.174;2023-03-01T05:55:46;27.13;;;16.08;;
48751;SDS011;34544;48.836;9.174;2023-03-01T05:58:17;25.75;;;17.05;;
48751;SDS011;34544;48.836;9.174;2023-03-01T06:00:44;31.65;;;17.42;;
48751;SDS011;34544;48.836;9.174;2023-03-01T06:03:12;24.90;;;15.73;;
48751;SDS011;34544;48.836;9.174;2023-03-01T06:05:39;27.10;;;15.90;;
48751;SDS011;34544;48.836;9.174;2023-03-01T06:08:05;28.35;;;17.45;;
48751;SDS011;34544;48.836;9.174;2023-03-01T06:10:31;29.77;;;16.23;;
48751;SDS011;34544;48.836;9.174;2023-03-01T06:12:57;27.98;;;15.40;;
48751;SDS011;34544;48.836;9.174;2023-03-01T06:15:23;29.50;;;16.42;;
48751;SDS011;34544;48.836;9.174;2023-03-01T06:17:49;24.17;;;16.65;;
48751;SDS011;34544;48.836;9.174;2023-03-01T06:20:20;25.70;;;16.42;;
48751;SDS011;34544;48.836;9.174;2023-03-01T06:22:47;24.90;;;16.50;;
48751;SDS011;34544;48.836;9.174;2023-03-01T06:25:15;27.33;;;16.17;;
48751;SDS011;34544;48.836;9.174;2023-03-01T06:27:43;27.83;;;16.35;;
48751;SDS011;34544;48.836;9.174;2023-03-01T06:30:10;31.50;;;18.40;;
48751;SDS011;34544;48.836;9.174;2023-03-01T06:32:37;26.38;;;16.35;;
48751;SDS011;34544;48.836;9.174;2023-03-01T06:35:06;32.17;;;18.20;;
48751;SDS011;34544;48.836;9.174;2023-03-01T06:37:33;27.33;;;16.38;;
48751;SDS011;34544;48.836;9.174;2023-03-01T06:40:00;31.55;;;18.67;;
48751;SDS011;34544;48.836;9.174;2023-03-01T06:42:33;35.78;;;17.05;;
48751;SDS011;34544;48.836;9.174;2023-03-01T06:45:03;29.15;;;17.35;;
48751;SDS011;34544;48.836;9.174;2023-03-01T06:47:30;27.05;;;16.55;;
48751;SDS011;34544;48.836;9.174;2023-03-01T06:49:55;26.67;;;17.63;;
48751;SDS011;34544;48.836;9.174;2023-03-01T06:52:21;25.80;;;16.25;;
48751;SDS011;34544;48.836;9.174;2023-03-01T06:54:47;27.80;;;17.38;;
48751;SDS011;34544;48.836;9.174;2023-03-01T06:57:12;30.42;;;17.20;;
48751;SDS011;34544;48.836;9.174;2023-03-01T06:59:38;29.50;;;15.50;;
48751;SDS011;34544;48.836;9.174;2023-03-01T07:02:04;27.80;;;16.08;;
48751;SDS011;34544;48.836;9.174;2023-03-01T07:04:29;36.35;;;18.55;;
48751;SDS011;34544;48.836;9.174;2023-03-01T07:06:55;31.77;;;17.38;;
48751;SDS011;34544;48.836;9.174;2023-03-01T07:09:22;30.98;;;18.08;;
48751;SDS011;34544;48.836;9.174;2023-03-01T07:11:48;30.58;;;17.55;;
48751;SDS011;34544;48.836;9.174;2023-03-01T07:14:14;30.42;;;17.38;;
48751;SDS011;34544;48.836;9.174;2023-03-01T07:16:40;30.85;;;17.95;;
48751;SDS011;34544;48.836;9.174;2023-03-01T07:19:05;32.22;;;16.98;;
48751;SDS011;34544;48.836;9.174;2023-03-01T07:21:31;35.03;;;20.00;;
48751;SDS011;34544;48.836;9.174;2023-03-01T07:23:57;27.85;;;17.17;;
48751;SDS011;34544;48.836;9.174;2023-03-01T07:26:22;27.95;;;17.35;;
48751;SDS011;34544;48.836;9.174;2023-03-01T07:28:48;25.55;;;16.17;;
48751;SDS011;34544;48.836;9.174;2023-03-01T07:31:13;24.25;;;15.35;;
48751;SDS011;34544;48.836;9.174;2023-03-01T07:33:39;27.02;;;16.88;;
48751;SDS011;34544;48.836;9.174;2023-03-01T07:36:05;31.67;;;16.48;;
48751;SDS011;34544;48.836;9.174;2023-03-01T07:38:31;31.40;;;16.23;;
48751;SDS011;34544;48.836;9.174;2023-03-01T07:40:58;26.10;;;16.83;;
48751;SDS011;34544;48.836;9.174;2023-03-01T07:43:25;24.35;;;16.67;;
48751;SDS011;34544;48.836;9.174;2023-03-01T07:45:51;24.95;;;17.17;;
48751;SDS011;34544;48.836;9.174;2023-03-01T07:48:17;26.55;;;16.05;;
48751;SDS011;34544;48.836;9.174;2023-03-01T07:50:43;25.88;;;16.90;;
48751;SDS011;34544;48.836;9.174;2023-03-01T07:53:09;24.23;;;16.17;;
48751;SDS011;34544;48.836;9.174;2023-03-01T07:55:35;25.17;;;16.75;;
48751;SDS011;34544;48.836;9.174;2023-03-01T07:58:01;23.20;;;17.23;;
48751;SDS011;34544;48.836;9.174;2023-03-01T08:00:27;28.55;;;17.27;;
48751;SDS011;34544;48.836;9.174;2023-03-01T08:02:52;27.55;;;16.75;;
48751;SDS011;34544;48.836;9.174;2023-03-01T08:05:18;23.52;;;16.27;;
48751;SDS011;34544;48.836;9.174;2023-03-01T08:07:44;28.58;;;18.35;;
48751;SDS011;34544;48.836;9.174;2023-03-01T08:10:09;28.85;;;17.73;;
48751;SDS011;34544;48.836;9.174;2023-03-01T08:12:36;23.92;;;16.35;;
48751;SDS011;34544;48.836;9.174;2023-03-01T08:15:01;23.38;;;17.17;;
48751;SDS011;34544;48.836;9.174;2023-03-01T08:17:27;26.55;;;18.02;;
48751;SDS011;34544;48.836;9.174;2023-03-01T08:19:53;27.88;;;17.50;;
48751;SDS011;34544;48.836;9.174;2023-03-01T08:22:18;20.58;;;16.25;;
48751;SDS011;34544;48.836;9.174;2023-03-01T08:24:44;28.17;;;17.92;;
48751;SDS011;34544;48.836;9.174;2023-03-01T08:27:10;23.83;;;16.02;;
48751;SDS011;34544;48.836;9.174;2023-03-01T08:29:37;23.95;;;17.02;;
48751;SDS011;34544;48.836;9.174;2023-03-01T08:32:02;25.58;;;17.90;;
48751;SDS011;34544;48.836;9.174;2023-03-01T08:34:28;22.00;;;15.82;;
48751;SDS011;34544;48.836;9.174;2023-03-01T08:36:56;28.00;;;18.63;;
48751;SDS011;34544;48.836;9.174;2023-03-01T08:39:21;23.13;;;17.00;;
48751;SDS011;34544;48.836;9.174;2023-03-01T08:41:47;23.10;;;17.30;;
48751;SDS011;34544;48.836;9.174;2023-03-01T08:44:13;23.55;;;18.23;;
48751;SDS011;34544;48.836;9.174;2023-03-01T08:46:41;25.40;;;18.02;;
48751;SDS011;34544;48.836;9.174;2023-03-01T08:49:12;23.38;;;17.33;;
48751;SDS011;34544;48.836;9.174;2023-03-01T08:51:40;24.13;;;18.00;;
48751;SDS011;34544;48.836;9.174;2023-03-01T08:54:07;22.38;;;16.45;;
48751;SDS011;34544;48.836;9.174;2023-03-01T08:56:36;26.90;;;18.25;;
48751;SDS011;34544;48.836;9.174;2023-03-01T08:59:02;23.77;;;16.50;;
48751;SDS011;34544;48.836;9.174;2023-03-01T09:01:28;25.02;;;17.73;;
48751;SDS011;34544;48.836;9.174;2023-03-01T09:03:54;22.40;;;18.35;;
48751;SDS011;34544;48.836;9.174;2023-03-01T09:06:20;27.23;;;17.65;;
48751;SDS011;34544;48.836;9.174;2023-03-01T09:08:47;21.40;;;17.08;;
48751;SDS011;34544;48.836;9.174;2023-03-01T09:11:18;22.20;;;17.30;;
48751;SDS011;34544;48.836;9.174;2023-03-01T09:13:47;21.33;;;16.90;;
48751;SDS011;34544;48.836;9.174;2023-03-01T09:16:14;21.38;;;16.30;;
48751;SDS011;34544;48.836;9.174;2023-03-01T09:18:42;23.50;;;17.83;;
48751;SDS011;34544;48.836;9.174;2023-03-01T09:21:12;22.92;;;16.45;;
48751;SDS011;34544;48.836;9.174;2023-03-01T09:23:40;23.55;;;17.80;;
48751;SDS011;34544;48.836;9.174;2023-03-01T09:26:14;24.38;;;17.98;;
48751;SDS011;34544;48.836;9.174;2023-03-01T09:28:41;22.70;;;16.43;;
48751;SDS011;34544;48.836;9.174;2023-03-01T09:31:07;26.52;;;18.13;;
48751;SDS011;34544;48.836;9.174;2023-03-01T09:33:33;25.33;;;17.40;;
48751;SDS011;34544;48.836;9.174;2023-03-01T09:36:00;22.80;;;17.25;;
48751;SDS011;34544;48.836;9.174;2023-03-01T09:38:27;21.77;;;18.25;;
48751;SDS011;34544;48.836;9.174;2023-03-01T09:40:53;21.33;;;17.48;;
48751;SDS011;34544;48.836;9.174;2023-03-01T09:43:27;21.70;;;17.08;;
48751;SDS011;34544;48.836;9.174;2023-03-01T09:45:59;22.98;;;17.45;;
48751;SDS011;34544;48.836;9.174;2023-03-01T09:48:30;22.77;;;17.48;;
48751;SDS011;34544;48.836;9.174;2023-03-01T09:51:01;21.52;;;16.67;;
48751;SDS011;34544;48.836;9.174;2023-03-01T09:53:32;23.73;;;17.50;;
48751;SDS011;34544;48.836;9.174;2023-03-01T09:56:11;22.20;;;18.20;;
48751;SDS011;34544;48.836;9.174;2023-03-01T09:58:49;20.48;;;16.90;;
48751;SDS011;34544;48.836;9.174;2023-03-01T10:07:14;24.63;;;17.00;;
48751;SDS011;34544;48.836;9.174;2023-03-01T10:09:42;20.27;;;16.88;;
48751;SDS011;34544;48.836;9.174;2023-03-01T10:12:11;22.80;;;16.90;;
48751;SDS011;34544;48.836;9.174;2023-03-01T10:15:29;20.83;;;16.25;;
48751;SDS011;34544;48.836;9.174;2023-03-01T10:20:19;18.75;;;16.30;;
48751;SDS011;34544;48.836;9.174;2023-03-01T10:22:46;21.30;;;16.48;;
48751;SDS011;34544;48.836;9.174;2023-03-01T10:25:15;22.67;;;16.70;;
48751;SDS011;34544;48.836;9.174;2023-03-01T10:28:08;18.02;;;15.90;;
48751;SDS011;34544;48.836;9.174;2023-03-01T10:30:49;25.20;;;16.85;;
48751;SDS011;34544;48.836;9.174;2023-03-01T10:33:23;21.90;;;16.90;;
48751;SDS011;34544;48.836;9.174;2023-03-01T10:36:02;24.60;;;16.02;;
48751;SDS011;34544;48.836;9.174;2023-03-01T10:38:27;22.90;;;16.80;;
48751;SDS011;34544;48.836;9.174;2023-03-01T10:40:57;19.00;;;16.70;;
48751;SDS011;34544;48.836;9.174;2023-03-01T10:43:53;21.65;;;16.60;;
48751;SDS011;34544;48.836;9.174;2023-03-01T10:46:22;17.90;;;15.85;;
48751;SDS011;34544;48.836;9.174;2023-03-01T10:51:42;18.85;;;13.98;;
48751;SDS011;34544;48.836;9.174;2023-03-01T10:54:26;24.10;;;14.57;;
48751;SDS011;34544;48.836;9.174;2023-03-01T10:56:54;23.08;;;16.88;;
48751;SDS011;34544;48.836;9.174;2023-03-01T10:59:32;17.15;;;14.60;;
48751;SDS011;34544;48.836;9.174;2023-03-01T11:02:04;20.25;;;15.85;;
48751;SDS011;34544;48.836;9.174;2023-03-01T11:07:50;21.17;;;16.05;;
48751;SDS011;34544;48.836;9.174;2023-03-01T11:10:20;16.50;;;14.77;;
48751;SDS011;34544;48.836;9.174;2023-03-01T11:12:47;19.75;;;15.23;;
48751;SDS011;34544;48.836;9.174;2023-03-01T11:15:20;17.63;;;15.02;;
48751;SDS011;34544;48.836;9.174;2023-03-01T11:17:48;17.10;;;13.73;;
48751;SDS011;34544;48.836;9.174;2023-03-01T11:20:18;18.35;;;15.32;;
48751;SDS011;34544;48.836;9.174;2023-03-01T11:22:54;19.83;;;14.82;;
48751;SDS011;34544;48.836;9.174;2023-03-01T11:25:24;16.55;;;14.32;;
48751;SDS011;34544;48.836;9.174;2023-03-01T11:27:53;18.35;;;14.73;;
48751;SDS011;34544;48.836;9.174;2023-03-01T11:35:47;17.67;;;13.77;;
48751;SDS011;34544;48.836;9.174;2023-03-01T11:38:35;17.48;;;14.15;;
48751;SDS011;34544;48.836;9.174;2023-03-01T11:41:16;15.68;;;12.80;;
48751;SDS011;34544;48.836;9.174;2023-03-01T11:46:47;15.20;;;13.63;;
48751;SDS011;34544;48.836;9.174;2023-03-01T11:52:17;14.63;;;13.07;;
48751;SDS011;34544;48.836;9.174;2023-03-01T11:58:01;16.75;;;12.82;;
48751;SDS011;34544;48.836;9.174;2023-03-01T12:07:00;17.58;;;13.00;;
48751;SDS011;34544;48.836;9.174;2023-03-01T12:12:25;17.73;;;13.85;;
48751;SDS011;34544;48.836;9.174;2023-03-01T12:18:13;19.17;;;15.30;;
48751;SDS011;34544;48.836;9.174;2023-03-01T12:23:40;17.88;;;14.10;;
48751;SDS011;34544;48.836;9.174;2023-03-01T12:26:35;15.95;;;13.57;;
48751;SDS011;34544;48.836;9.174;2023-03-01T12:32:06;19.48;;;14.00;;
48751;SDS011;34544;48.836;9.174;2023-03-01T12:34:53;20.15;;;14.43;;
48751;SDS011;34544;48.836;9.174;2023-03-01T12:37:41;21.08;;;14.02;;
48751;SDS011;34544;48.836;9.174;2023-03-01T12:43:22;15.90;;;13.25;;
48751;SDS011;34544;48.836;9.174;2023-03-01T12:46:09;18.13;;;12.68;;
48751;SDS011;34544;48.836;9.174;2023-03-01T12:51:26;17.55;;;13.90;;
48751;SDS011;34544;48.836;9.174;2023-03-01T12:53:56;18.45;;;13.20;;
48751;SDS011;34544;48.836;9.174;2023-03-01T12:56:25;15.52;;;13.15;;
48751;SDS011;34544;48.836;9.174;2023-03-01T12:58:59;16.85;;;14.18;;
48751;SDS011;34544;48.836;9.174;2023-03-01T13:02:48;22.30;;;14.55;;
48751;SDS011;34544;48.836;9.174;2023-03-01T13:07:41;14.38;;;12.70;;
48751;SDS011;34544;48.836;9.174;2023-03-01T13:12:50;15.52;;;13.60;;
48751;SDS011;34544;48.836;9.174;2023-03-01T13:15:26;17.48;;;14.52;;
48751;SDS011;34544;48.836;9.174;2023-03-01T13:18:03;17.20;;;15.00;;
48751;SDS011;34544;48.836;9.174;2023-03-01T13:20:34;20.33;;;13.77;;
48751;SDS011;34544;48.836;9.174;2023-03-01T13:26:05;16.50;;;13.18;;
48751;SDS011;34544;48.836;9.174;2023-03-01T13:28:47;18.98;;;13.57;;
48751;SDS011;34544;48.836;9.174;2023-03-01T13:33:44;16.80;;;12.77;;
48751;SDS011;34544;48.836;9.174;2023-03-01T13:46:49;22.73;;;15.65;;
48751;SDS011;34544;48.836;9.174;2023-03-01T13:49:18;17.77;;;14.90;;
48751;SDS011;34544;48.836;9.174;2023-03-01T13:51:47;19.38;;;14.77;;
48751;SDS011;34544;48.836;9.174;2023-03-01T13:54:14;19.17;;;14.48;;
48751;SDS011;34544;48.836;9.174;2023-03-01T13:56:44;19.15;;;15.55;;
48751;SDS011;34544;48.836;9.174;2023-03-01T13:59:14;16.23;;;13.98;;
48751;SDS011;34544;48.836;9.174;2023-03-01T14:01:53;19.60;;;15.13;;
48751;SDS011;34544;48.836;9.174;2023-03-01T14:04:28;19.83;;;14.57;;
48751;SDS011;34544;48.836;9.174;2023-03-01T14:07:09;22.65;;;14.48;;
48751;SDS011;34544;48.836;9.174;2023-03-01T14:09:37;18.30;;;15.43;;
48751;SDS011;34544;48.836;9.174;2023-03-01T14:19:55;19.00;;;15.60;;
48751;SDS011;34544;48.836;9.174;2023-03-01T14:22:24;18.67;;;14.15;;
48751;SDS011;34544;48.836;9.174;2023-03-01T14:24:55;20.33;;;14.90;;
48751;SDS011;34544;48.836;9.174;2023-03-01T14:27:21;20.63;;;16.02;;
48751;SDS011;34544;48.836;9.174;2023-03-01T14:29:58;17.27;;;15.43;;
48751;SDS011;34544;48.836;9.174;2023-03-01T14:32:26;18.83;;;15.55;;
48751;SDS011;34544;48.836;9.174;2023-03-01T14:34:54;23.33;;;15.27;;
48751;SDS011;34544;48.836;9.174;2023-03-01T14:37:27;19.08;;;16.27;;
48751;SDS011;34544;48.836;9.174;2023-03-01T14:39:59;17.85;;;15.73;;
48751;SDS011;34544;48.836;9.174;2023-03-01T14:42:30;19.38;;;14.75;;
48751;SDS011;34544;48.836;9.174;2023-03-01T14:45:00;20.15;;;17.02;;
48751;SDS011;34544;48.836;9.174;2023-03-01T14:47:33;20.88;;;16.10;;
48751;SDS011;34544;48.836;9.174;2023-03-01T14:50:01;18.40;;;15.53;;
48751;SDS011;34544;48.836;9.174;2023-03-01T14:52:49;19.27;;;17.00;;
48751;SDS011;34544;48.836;9.174;2023-03-01T14:55:20;21.05;;;15.38;;
48751;SDS011;34544;48.836;9.174;2023-03-01T14:57:52;18.40;;;16.02;;
48751;SDS011;34544;48.836;9.174;2023-03-01T15:02:50;20.00;;;14.82;;
48751;SDS011;34544;48.836;9.174;2023-03-01T15:05:18;20.10;;;15.57;;
48751;SDS011;34544;48.836;9.174;2023-03-01T15:07:50;22.75;;;16.42;;
48751;SDS011;34544;48.836;9.174;2023-03-01T15:10:19;20.13;;;15.43;;
48751;SDS011;34544;48.836;9.174;2023-03-01T15:12:50;16.73;;;14.70;;
48751;SDS011;34544;48.836;9.174;2023-03-01T15:15:22;18.00;;;15.45;;
48751;SDS011;34544;48.836;9.174;2023-03-01T15:18:06;20.08;;;16.52;;
48751;SDS011;34544;48.836;9.174;2023-03-01T15:20:40;24.38;;;16.55;;
48751;SDS011;34544;48.836;9.174;2023-03-01T15:23:06;22.92;;;16.25;;
48751;SDS011;34544;48.836;9.174;2023-03-01T15:25:47;20.60;;;16.30;;
48751;SDS011;34544;48.836;9.174;2023-03-01T15:28:21;22.35;;;16.92;;
48751;SDS011;34544;48.836;9.174;2023-03-01T15:30:51;22.65;;;17.00;;
48751;SDS011;34544;48.836;9.174;2023-03-01T15:33:28;23.45;;;16.25;;
48751;SDS011;34544;48.836;9.174;2023-03-01T15:35:57;22.88;;;16.67;;
48751;SDS011;34544;48.836;9.174;2023-03-01T15:38:49;23.23;;;17.63;;
48751;SDS011;34544;48.836;9.174;2023-03-01T15:43:48;27.13;;;16.45;;
48751;SDS011;34544;48.836;9.174;2023-03-01T15:48:50;21.58;;;16.17;;
48751;SDS011;34544;48.836;9.174;2023-03-01T15:51:37;24.33;;;16.20;;
48751;SDS011;34544;48.836;9.174;2023-03-01T15:54:18;27.40;;;17.23;;
48751;SDS011;34544;48.836;9.174;2023-03-01T15:56:47;26.10;;;16.20;;
48751;SDS011;34544;48.836;9.174;2023-03-01T15:59:13;29.88;;;17.33;;
48751;SDS011;34544;48.836;9.174;2023-03-01T16:01:42;22.98;;;16.95;;
48751;SDS011;34544;48.836;9.174;2023-03-01T16:04:11;20.85;;;15.85;;
48751;SDS011;34544;48.836;9.174;2023-03-01T16:06:41;22.92;;;16.20;;
48751;SDS011;34544;48.836;9.174;2023-03-01T16:09:07;24.08;;;16.08;;
48751;SDS011;34544;48.836;9.174;2023-03-01T16:11:32;21.65;;;15.73;;
48751;SDS011;34544;48.836;9.174;2023-03-01T16:14:01;19.13;;;15.30;;